createdAt,value
2023-05-15T00:00:30.810Z,6.70
2023-05-15T00:03:02.456Z,5.70
2023-05-15T00:05:33.818Z,5.80
2023-05-15T00:08:04.889Z,6.30
2023-05-15T00:10:36.809Z,5.90
2023-05-15T00:13:07.855Z,5.70
2023-05-15T00:15:40.410Z,5.60
2023-05-15T00:18:11.308Z,5.50
2023-05-15T00:20:42.002Z,5.50
2023-05-15T00:23:12.519Z,5.80
2023-05-15T00:25:43.467Z,5.60
2023-05-15T00:28:13.991Z,5.20
2023-05-15T00:30:47.203Z,5.50
2023-05-15T00:33:18.044Z,6.00
2023-05-15T00:35:48.876Z,5.90
2023-05-15T00:38:19.728Z,5.80
2023-05-15T00:40:52.764Z,5.60
2023-05-15T00:43:26.813Z,5.60
2023-05-15T00:45:58.817Z,5.90
2023-05-15T00:48:30.946Z,5.80
2023-05-15T00:51:01.766Z,5.70
2023-05-15T00:53:32.700Z,6.20
2023-05-15T00:56:04.186Z,6.00
2023-05-15T00:58:34.899Z,6.00
2023-05-15T01:01:08.284Z,5.80
2023-05-15T01:03:41.064Z,5.90
2023-05-15T01:06:12.090Z,6.00
2023-05-15T01:08:47.689Z,5.50
2023-05-15T01:11:19.020Z,5.80
2023-05-15T01:13:50.072Z,5.60
2023-05-15T01:16:22.096Z,6.60
2023-05-15T01:18:53.117Z,6.40
2023-05-15T01:21:58.598Z,6.00
2023-05-15T01:24:44.937Z,5.80
2023-05-15T01:27:27.333Z,5.20
2023-05-15T01:30:08.070Z,6.20
2023-05-15T01:32:44.383Z,5.70
2023-05-15T01:35:21.432Z,5.80
2023-05-15T01:38:03.996Z,5.10
2023-05-15T01:40:36.807Z,5.80
2023-05-15T01:43:12.769Z,5.50
2023-05-15T01:45:46.079Z,5.40
2023-05-15T01:48:19.267Z,6.20
2023-05-15T01:50:52.219Z,6.40
2023-05-15T01:53:23.365Z,5.50
2023-05-15T01:55:55.621Z,5.80
2023-05-15T01:58:28.497Z,5.90
2023-05-15T02:01:01.029Z,5.80
2023-05-15T02:03:34.395Z,6.60
2023-05-15T02:06:06.978Z,5.70
2023-05-15T02:08:42.013Z,5.40
2023-05-15T02:11:13.369Z,5.80
2023-05-15T02:13:46.190Z,6.30
2023-05-15T02:16:17.020Z,6.20
2023-05-15T02:18:47.694Z,6.00
2023-05-15T02:21:21.504Z,5.70
2023-05-15T02:23:52.068Z,6.50
2023-05-15T02:26:32.859Z,6.20
2023-05-15T02:29:14.800Z,6.00
2023-05-15T02:31:53.655Z,5.90
2023-05-15T02:34:34.121Z,6.30
2023-05-15T02:37:09.742Z,5.60
2023-05-15T02:39:41.573Z,6.20
2023-05-15T02:42:13.909Z,6.50
2023-05-15T02:44:45.316Z,6.10
2023-05-15T02:47:17.765Z,6.20
2023-05-15T02:49:48.346Z,6.10
2023-05-15T02:52:18.994Z,5.50
2023-05-15T02:54:49.853Z,6.20
2023-05-15T02:57:20.974Z,5.20
2023-05-15T02:59:51.767Z,5.70
2023-05-15T03:02:23.037Z,5.60
2023-05-15T03:04:55.751Z,5.40
2023-05-15T03:07:27.067Z,5.90
2023-05-15T03:09:58.315Z,6.70
2023-05-15T03:12:28.887Z,6.30
2023-05-15T03:14:59.622Z,7.00
2023-05-15T03:17:30.459Z,6.00
2023-05-15T03:20:01.075Z,6.00
2023-05-15T03:22:31.580Z,5.90
2023-05-15T03:25:02.739Z,5.80
2023-05-15T03:27:33.480Z,5.80
2023-05-15T03:30:04.292Z,5.60
2023-05-15T03:32:35.249Z,6.30
2023-05-15T03:35:06.352Z,6.30
2023-05-15T03:37:37.535Z,6.30
2023-05-15T03:40:09.912Z,6.40
2023-05-15T03:42:43.545Z,5.90
2023-05-15T03:45:14.154Z,6.40
2023-05-15T03:47:45.339Z,5.90
2023-05-15T03:50:16.462Z,6.00
2023-05-15T03:52:47.543Z,6.00
2023-05-15T03:55:18.884Z,5.70
2023-05-15T03:57:49.741Z,11.80
2023-05-15T04:00:22.126Z,9.70
2023-05-15T04:02:52.711Z,6.40
2023-05-15T04:05:23.795Z,5.70
2023-05-15T04:07:54.554Z,5.70
2023-05-15T04:10:25.622Z,5.80
2023-05-15T04:12:56.909Z,5.80
2023-05-15T04:15:28.916Z,5.70
2023-05-15T04:17:59.768Z,5.60
2023-05-15T04:20:31.073Z,6.40
2023-05-15T04:23:04.279Z,5.60
2023-05-15T04:25:34.932Z,8.70
2023-05-15T04:28:06.557Z,8.80
2023-05-15T04:30:37.315Z,6.40
2023-05-15T04:33:08.986Z,5.90
2023-05-15T04:35:39.830Z,6.10
2023-05-15T04:38:13.853Z,6.90
2023-05-15T04:40:44.355Z,6.10
2023-05-15T04:43:14.879Z,5.90
2023-05-15T04:45:47.031Z,6.30
2023-05-15T04:48:19.144Z,20.20
2023-05-15T04:50:49.737Z,22.20
2023-05-15T04:53:20.867Z,12.20
2023-05-15T04:55:52.561Z,7.70
2023-05-15T04:58:23.519Z,6.70
2023-05-15T05:00:54.196Z,6.70
2023-05-15T05:03:25.083Z,6.60
2023-05-15T05:05:56.102Z,6.70
2023-05-15T05:08:26.906Z,6.80
2023-05-15T05:10:59.810Z,6.80
2023-05-15T05:13:30.430Z,7.00
2023-05-15T05:16:01.083Z,7.20
2023-05-15T05:18:32.484Z,6.90
2023-05-15T05:21:04.003Z,6.70
2023-05-15T05:23:34.929Z,6.50
2023-05-15T05:26:07.939Z,6.80
2023-05-15T05:28:38.430Z,6.80
2023-05-15T05:31:09.833Z,7.30
2023-05-15T05:33:41.212Z,7.10
2023-05-15T05:36:12.309Z,6.90
2023-05-15T05:38:43.293Z,6.50
2023-05-15T05:41:13.854Z,7.30
2023-05-15T05:43:44.352Z,7.60
2023-05-15T05:46:16.395Z,7.70
2023-05-15T05:48:47.237Z,8.10
2023-05-15T05:51:18.498Z,7.10
2023-05-15T05:53:49.042Z,6.90
2023-05-15T05:56:19.901Z,7.60
2023-05-15T05:58:50.541Z,7.00
2023-05-15T06:01:21.934Z,7.20
2023-05-15T06:03:52.521Z,7.30
2023-05-15T06:06:23.681Z,7.80
2023-05-15T06:08:56.368Z,7.30
2023-05-15T06:11:27.618Z,8.40
2023-05-15T06:13:58.466Z,8.00
2023-05-15T06:16:29.153Z,8.40
2023-05-15T06:19:00.174Z,7.80
2023-05-15T06:21:30.717Z,8.00
2023-05-15T06:24:01.665Z,8.60
2023-05-15T06:26:32.755Z,7.90
2023-05-15T06:29:03.516Z,8.10
2023-05-15T06:31:34.101Z,8.00
2023-05-15T06:34:04.539Z,8.20
2023-05-15T06:36:35.413Z,7.80
2023-05-15T06:39:06.594Z,8.10
2023-05-15T06:41:37.150Z,8.20
2023-05-15T06:44:07.739Z,7.70
2023-05-15T06:46:38.689Z,7.70
2023-05-15T06:49:09.198Z,8.00
2023-05-15T06:51:39.745Z,7.90
2023-05-15T06:54:11.821Z,9.00
2023-05-15T06:56:42.282Z,8.60
2023-05-15T06:59:13.251Z,8.10
2023-05-15T07:01:43.929Z,8.30
2023-05-15T07:04:14.546Z,7.90
2023-05-15T07:06:48.027Z,8.50
2023-05-15T07:09:19.154Z,8.00
2023-05-15T07:11:49.658Z,8.30
2023-05-15T07:14:24.180Z,7.80
2023-05-15T07:16:55.103Z,8.00
2023-05-15T07:19:26.039Z,7.80
2023-05-15T07:21:59.416Z,7.70
2023-05-15T07:24:31.108Z,7.60
2023-05-15T07:27:02.399Z,8.00
2023-05-15T07:29:32.981Z,7.90
2023-05-15T07:32:03.683Z,7.60
2023-05-15T07:34:34.888Z,7.40
2023-05-15T07:37:07.417Z,7.00
2023-05-15T07:39:37.953Z,7.40
2023-05-15T07:42:09.153Z,7.20
2023-05-15T07:44:40.666Z,6.90
2023-05-15T07:47:12.258Z,7.00
2023-05-15T07:49:43.058Z,6.70
2023-05-15T07:52:14.013Z,6.70
2023-05-15T07:54:44.556Z,6.30
2023-05-15T07:57:15.482Z,7.10
2023-05-15T07:59:46.369Z,6.70
2023-05-15T08:02:16.943Z,6.30
2023-05-15T08:04:47.491Z,5.10
2023-05-15T08:07:18.158Z,4.80
2023-05-15T08:09:49.125Z,3.60
2023-05-15T08:12:21.848Z,5.00
2023-05-15T08:14:54.068Z,4.80
2023-05-15T08:17:25.824Z,4.40
2023-05-15T08:19:56.800Z,4.80
2023-05-15T08:22:27.337Z,4.50
2023-05-15T08:24:58.240Z,4.50
2023-05-15T08:27:29.322Z,4.40
2023-05-15T08:30:00.322Z,4.50
2023-05-15T08:32:31.051Z,4.40
2023-05-15T08:35:01.676Z,4.80
2023-05-15T08:37:33.740Z,4.60
2023-05-15T08:40:08.185Z,4.70
2023-05-15T08:42:44.840Z,5.00
2023-05-15T08:45:16.795Z,5.10
2023-05-15T08:47:47.444Z,4.70
2023-05-15T08:50:22.503Z,5.00
2023-05-15T08:52:58.332Z,4.80
2023-05-15T08:55:29.627Z,4.80
2023-05-15T08:58:01.937Z,4.50
2023-05-15T09:00:32.866Z,4.50
2023-05-15T09:03:03.865Z,4.60
2023-05-15T09:05:36.308Z,4.70
2023-05-15T09:08:09.831Z,5.20
2023-05-15T09:10:41.459Z,4.40
2023-05-15T09:13:13.249Z,4.50
2023-05-15T09:15:44.070Z,5.00
2023-05-15T09:18:14.740Z,4.70
2023-05-15T09:20:46.712Z,4.40
2023-05-15T09:23:28.945Z,4.40
2023-05-15T09:25:59.865Z,4.40
2023-05-15T09:28:33.395Z,4.00
2023-05-15T09:31:06.425Z,4.30
2023-05-15T09:33:38.655Z,4.30
2023-05-15T09:36:10.744Z,4.70
2023-05-15T09:38:48.068Z,4.50
2023-05-15T09:41:30.358Z,4.50
2023-05-15T09:44:01.259Z,4.40
2023-05-15T09:46:35.250Z,4.20
2023-05-15T09:49:07.616Z,4.20
2023-05-15T09:51:38.257Z,4.40
2023-05-15T09:54:15.303Z,4.20
2023-05-15T09:56:47.567Z,4.60
2023-05-15T09:59:21.560Z,4.30
2023-05-15T10:01:53.095Z,4.70
2023-05-15T10:04:23.917Z,4.50
2023-05-15T10:06:54.441Z,4.40
2023-05-15T10:09:31.022Z,4.10
2023-05-15T10:12:01.649Z,3.90
2023-05-15T10:14:33.619Z,4.40
2023-05-15T10:17:04.756Z,4.20
2023-05-15T10:19:41.548Z,5.10
2023-05-15T10:22:24.761Z,4.00
2023-05-15T10:25:03.857Z,4.40
2023-05-15T10:27:35.998Z,4.30
2023-05-15T10:30:10.878Z,4.30
2023-05-15T10:32:43.592Z,4.40
2023-05-15T10:35:16.469Z,4.30
2023-05-15T10:37:49.899Z,4.40
2023-05-15T10:40:21.422Z,4.10
2023-05-15T10:42:52.522Z,4.60
2023-05-15T10:45:23.394Z,4.40
2023-05-15T10:47:56.434Z,4.30
2023-05-15T10:50:28.273Z,4.50
2023-05-15T10:52:59.203Z,4.60
2023-05-15T10:55:31.665Z,4.40
2023-05-15T10:58:02.492Z,4.60
2023-05-15T11:00:33.000Z,4.20
2023-05-15T11:03:06.066Z,4.20
2023-05-15T11:06:12.958Z,4.10
2023-05-15T11:11:49.725Z,4.20
2023-05-15T11:14:20.350Z,4.80
2023-05-15T11:17:03.821Z,4.10
2023-05-15T11:19:57.860Z,4.40
2023-05-15T11:22:35.871Z,4.60
2023-05-15T11:25:08.786Z,4.50
2023-05-15T11:27:43.470Z,5.20
2023-05-15T11:30:20.545Z,4.70
2023-05-15T11:32:58.347Z,5.00
2023-05-15T11:35:34.112Z,5.40
2023-05-15T11:38:12.515Z,5.40
2023-05-15T11:40:55.074Z,5.70
2023-05-15T11:43:27.750Z,5.30
2023-05-15T11:46:07.332Z,5.70
2023-05-15T11:48:38.923Z,5.30
2023-05-15T11:51:19.850Z,5.60
2023-05-15T11:53:52.465Z,5.50
2023-05-15T11:56:24.412Z,4.70
2023-05-15T11:58:59.855Z,5.10
2023-05-15T12:01:39.718Z,4.60
2023-05-15T12:04:16.132Z,4.40
2023-05-15T12:06:49.604Z,4.60
2023-05-15T12:09:27.436Z,4.40
2023-05-15T12:11:58.584Z,4.30
2023-05-15T12:14:33.898Z,4.40
2023-05-15T12:17:05.149Z,4.30
2023-05-15T12:19:36.769Z,4.70
2023-05-15T12:22:09.002Z,4.50
2023-05-15T12:24:42.102Z,4.30
2023-05-15T12:27:14.358Z,4.30
2023-05-15T12:29:46.061Z,4.40
2023-05-15T12:32:16.724Z,3.60
2023-05-15T12:34:47.732Z,3.90
2023-05-15T12:37:20.738Z,4.40
2023-05-15T12:39:58.617Z,4.20
2023-05-15T12:42:29.355Z,3.60
2023-05-15T12:45:00.005Z,3.90
2023-05-15T12:47:31.669Z,4.00
2023-05-15T12:50:02.583Z,4.10
2023-05-15T12:52:33.968Z,3.90
2023-05-15T12:55:04.631Z,4.30
2023-05-15T12:57:36.123Z,4.20
2023-05-15T13:00:12.547Z,4.00
2023-05-15T13:02:46.231Z,4.10
2023-05-15T13:05:17.375Z,4.00
2023-05-15T13:07:48.930Z,3.70
2023-05-15T13:10:22.034Z,3.80
2023-05-15T13:12:54.003Z,3.40
2023-05-15T13:15:30.576Z,4.30
2023-05-15T13:18:06.672Z,3.40
2023-05-15T13:20:39.157Z,3.90
2023-05-15T13:23:11.209Z,3.60
2023-05-15T13:25:42.226Z,4.10
2023-05-15T13:28:13.407Z,3.90
2023-05-15T13:30:44.356Z,3.70
2023-05-15T13:33:15.242Z,4.00
2023-05-15T13:35:46.152Z,3.80
2023-05-15T13:38:16.897Z,3.70
2023-05-15T13:40:47.544Z,3.80
2023-05-15T13:43:18.565Z,3.70
2023-05-15T13:45:49.427Z,3.70
2023-05-15T13:48:19.945Z,3.80
2023-05-15T13:50:52.686Z,3.70
2023-05-15T13:53:23.802Z,3.50
2023-05-15T13:55:54.436Z,3.70
2023-05-15T13:58:27.353Z,3.70
2023-05-15T14:00:58.472Z,3.90
2023-05-15T14:03:29.528Z,4.50
2023-05-15T14:06:00.234Z,4.60
2023-05-15T14:08:30.799Z,4.50
2023-05-15T14:11:02.105Z,5.10
2023-05-15T14:13:33.439Z,4.70
2023-05-15T14:16:04.089Z,4.60
2023-05-15T14:18:34.703Z,4.50
2023-05-15T14:21:05.773Z,4.30
2023-05-15T14:23:38.987Z,4.50
2023-05-15T14:26:09.552Z,4.40
2023-05-15T14:28:40.408Z,4.20
2023-05-15T14:31:11.851Z,4.20
2023-05-15T14:33:42.404Z,4.60
2023-05-15T14:36:14.410Z,4.20
2023-05-15T14:38:47.912Z,4.40
2023-05-15T14:41:18.871Z,4.10
2023-05-15T14:43:49.423Z,4.20
2023-05-15T14:46:20.334Z,3.90
2023-05-15T14:48:51.263Z,4.20
2023-05-15T14:51:21.739Z,4.50
2023-05-15T14:53:52.280Z,4.10
2023-05-15T14:56:23.340Z,4.60
2023-05-15T14:58:54.202Z,4.90
2023-05-15T15:01:24.735Z,4.70
2023-05-15T15:03:55.619Z,4.40
2023-05-15T15:06:26.446Z,4.70
2023-05-15T15:08:57.234Z,5.10
2023-05-15T15:11:27.906Z,5.40
2023-05-15T15:13:58.710Z,4.80
2023-05-15T15:16:29.185Z,5.00
2023-05-15T15:18:59.797Z,5.00
2023-05-15T15:21:30.834Z,4.20
2023-05-15T15:24:01.830Z,5.00
2023-05-15T15:26:32.726Z,4.90
2023-05-15T15:29:03.293Z,4.70
2023-05-15T15:31:34.414Z,4.00
2023-05-15T15:34:06.647Z,4.80
2023-05-15T15:36:39.312Z,4.10
2023-05-15T15:39:11.554Z,4.70
2023-05-15T15:41:42.029Z,4.00
2023-05-15T15:44:12.580Z,4.40
2023-05-15T15:46:43.600Z,4.40
2023-05-15T15:49:14.141Z,4.40
2023-05-15T15:51:45.256Z,4.10
2023-05-15T15:54:15.863Z,3.80
2023-05-15T15:56:48.079Z,3.90
2023-05-15T15:59:18.901Z,4.20
2023-05-15T16:01:49.561Z,4.10
2023-05-15T16:04:20.091Z,4.40
2023-05-15T16:06:53.280Z,4.30
2023-05-15T16:09:23.801Z,4.50
2023-05-15T16:11:57.560Z,4.00
2023-05-15T16:14:31.888Z,4.80
2023-05-15T16:17:05.822Z,4.60
2023-05-15T16:19:36.694Z,4.40
2023-05-15T16:22:07.424Z,4.90
2023-05-15T16:24:38.564Z,4.70
2023-05-15T16:27:09.184Z,4.50
2023-05-15T16:29:40.083Z,4.30
2023-05-15T16:32:10.987Z,4.50
2023-05-15T16:34:41.540Z,3.70
2023-05-15T16:37:12.732Z,3.60
2023-05-15T16:39:43.828Z,3.30
2023-05-15T16:42:14.709Z,3.80
2023-05-15T16:44:45.606Z,3.60
2023-05-15T16:47:16.153Z,3.50
2023-05-15T16:49:49.182Z,3.90
2023-05-15T16:52:20.606Z,3.70
2023-05-15T16:54:51.511Z,3.50
2023-05-15T16:57:22.656Z,3.20
2023-05-15T16:59:53.426Z,3.90
2023-05-15T17:02:24.048Z,4.40
2023-05-15T17:04:55.195Z,4.20
2023-05-15T17:07:26.077Z,3.80
2023-05-15T17:09:56.774Z,4.60
2023-05-15T17:12:27.851Z,4.60
2023-05-15T17:14:58.522Z,4.50
2023-05-15T17:17:29.800Z,3.90
2023-05-15T17:20:02.534Z,4.30
2023-05-15T17:22:34.200Z,4.80
2023-05-15T17:25:05.125Z,4.30
2023-05-15T17:27:39.780Z,4.10
2023-05-15T17:30:12.122Z,4.60
2023-05-15T17:32:42.895Z,4.50
2023-05-15T17:35:13.776Z,4.50
2023-05-15T17:37:44.569Z,4.20
2023-05-15T17:40:15.652Z,4.40
2023-05-15T17:42:46.514Z,4.40
2023-05-15T17:45:17.611Z,4.40
2023-05-15T17:47:49.175Z,4.10
2023-05-15T17:50:19.870Z,4.10
2023-05-15T17:52:50.694Z,4.20
2023-05-15T17:55:21.509Z,4.50
2023-05-15T17:57:52.013Z,4.20
2023-05-15T18:00:23.321Z,5.20
2023-05-15T18:02:54.031Z,4.10
2023-05-15T18:05:29.344Z,4.20
2023-05-15T18:08:03.411Z,5.00
2023-05-15T18:10:34.027Z,4.90
2023-05-15T18:13:04.534Z,4.90
2023-05-15T18:15:38.386Z,5.00
2023-05-15T18:18:09.082Z,4.60
2023-05-15T18:20:42.101Z,5.10
2023-05-15T18:23:12.677Z,5.10
2023-05-15T18:25:43.475Z,6.20
2023-05-15T18:28:15.029Z,4.90
2023-05-15T18:30:47.285Z,4.40
2023-05-15T18:33:18.322Z,4.90
2023-05-15T18:35:48.746Z,5.40
2023-05-15T18:38:19.355Z,5.10
2023-05-15T18:40:50.049Z,4.60
2023-05-15T18:43:20.853Z,5.00
2023-05-15T18:45:51.859Z,4.50
2023-05-15T18:48:22.387Z,4.40
2023-05-15T18:50:53.807Z,5.10
2023-05-15T18:53:24.864Z,4.30
2023-05-15T18:55:55.545Z,4.20
2023-05-15T18:58:26.526Z,4.60
2023-05-15T19:01:00.157Z,4.10
2023-05-15T19:03:31.253Z,4.10
2023-05-15T19:06:01.935Z,4.20
2023-05-15T19:08:32.498Z,4.60
2023-05-15T19:11:03.087Z,4.40
2023-05-15T19:13:34.306Z,4.30
2023-05-15T19:16:06.830Z,4.50
2023-05-15T19:18:37.448Z,4.80
2023-05-15T19:21:08.253Z,4.60
2023-05-15T19:23:41.109Z,4.60
2023-05-15T19:26:15.734Z,4.50
2023-05-15T19:28:46.653Z,4.60
2023-05-15T19:31:27.824Z,4.40
2023-05-15T19:34:02.348Z,4.60
2023-05-15T19:36:33.050Z,4.60
2023-05-15T19:39:03.932Z,4.80
2023-05-15T19:41:34.939Z,4.00
2023-05-15T19:44:09.381Z,4.90
2023-05-15T19:46:40.308Z,4.70
2023-05-15T19:49:11.925Z,4.50
2023-05-15T19:51:42.548Z,4.50
2023-05-15T19:54:13.070Z,4.80
2023-05-15T19:56:44.025Z,4.60
2023-05-15T19:59:14.940Z,4.70
2023-05-15T20:01:47.401Z,4.90
2023-05-15T20:04:20.990Z,4.30
2023-05-15T20:06:51.452Z,4.70
2023-05-15T20:09:21.953Z,4.30
2023-05-15T20:11:52.841Z,4.70
2023-05-15T20:14:23.320Z,4.30
2023-05-15T20:16:54.113Z,4.40
2023-05-15T20:19:25.103Z,4.70
2023-05-15T20:21:55.908Z,5.00
2023-05-15T20:24:26.963Z,5.00
2023-05-15T20:26:58.319Z,4.70
2023-05-15T20:29:29.067Z,4.50
2023-05-15T20:32:00.370Z,4.70
2023-05-15T20:34:32.690Z,4.60
2023-05-15T20:37:03.322Z,4.50
2023-05-15T20:39:34.375Z,4.60
2023-05-15T20:42:05.481Z,4.60
2023-05-15T20:44:39.329Z,4.70
2023-05-15T20:47:10.504Z,4.60
2023-05-15T20:49:41.718Z,4.50
2023-05-15T20:52:12.287Z,4.40
2023-05-15T20:54:42.880Z,4.70
2023-05-15T20:57:13.480Z,4.80
2023-05-15T20:59:44.093Z,4.40
2023-05-15T21:02:15.212Z,4.40
2023-05-15T21:04:45.754Z,4.80
2023-05-15T21:07:16.617Z,5.00
2023-05-15T21:09:47.131Z,5.40
2023-05-15T21:12:17.780Z,4.90
2023-05-15T21:14:50.574Z,5.30
2023-05-15T21:17:21.859Z,4.90
2023-05-15T21:19:52.352Z,4.80
2023-05-15T21:22:23.476Z,5.50
2023-05-15T21:24:57.120Z,5.40
2023-05-15T21:27:28.103Z,5.50
2023-05-15T21:29:58.887Z,4.80
2023-05-15T21:32:32.427Z,6.10
2023-05-15T21:35:02.909Z,5.30
2023-05-15T21:37:33.779Z,5.30
2023-05-15T21:40:04.489Z,4.80
2023-05-15T21:42:36.592Z,4.50
2023-05-15T21:45:11.470Z,5.80
2023-05-15T21:47:46.790Z,5.80
2023-05-15T21:50:17.488Z,5.20
2023-05-15T21:52:50.844Z,5.80
2023-05-15T21:55:22.886Z,6.20
2023-05-15T21:57:53.484Z,5.70
2023-05-15T22:00:24.365Z,6.60
2023-05-15T22:02:58.247Z,4.90
2023-05-15T22:05:29.130Z,5.50
2023-05-15T22:08:01.350Z,6.30
2023-05-15T22:10:31.957Z,6.10
2023-05-15T22:13:03.558Z,6.10
2023-05-15T22:15:34.061Z,6.10
2023-05-15T22:18:05.642Z,6.60
2023-05-15T22:20:38.500Z,6.30
2023-05-15T22:23:09.036Z,6.40
2023-05-15T22:25:39.886Z,5.20
2023-05-15T22:28:10.649Z,6.80
2023-05-15T22:30:41.195Z,5.60
2023-05-15T22:33:12.021Z,7.10
2023-05-15T22:35:42.583Z,6.80
2023-05-15T22:38:13.063Z,6.60
2023-05-15T22:40:44.317Z,6.10
2023-05-15T22:43:15.405Z,7.10
2023-05-15T22:45:45.949Z,5.50
2023-05-15T22:48:16.892Z,6.20
2023-05-15T22:50:47.694Z,6.20
2023-05-15T22:53:21.119Z,6.80
2023-05-15T22:55:52.264Z,5.90
2023-05-15T22:58:22.820Z,5.60
2023-05-15T23:00:53.735Z,5.80
2023-05-15T23:03:24.679Z,5.50
2023-05-15T23:05:55.367Z,5.30
2023-05-15T23:08:26.481Z,4.70
2023-05-15T23:10:57.670Z,5.20
2023-05-15T23:13:28.212Z,5.00
2023-05-15T23:15:58.751Z,4.80
2023-05-15T23:18:29.763Z,5.20
2023-05-15T23:21:02.392Z,4.20
2023-05-15T23:23:32.895Z,3.50
2023-05-15T23:26:03.380Z,3.90
2023-05-15T23:28:34.236Z,4.20
2023-05-15T23:31:04.892Z,4.20
2023-05-15T23:33:35.692Z,4.30
2023-05-15T23:36:07.062Z,4.00
2023-05-15T23:38:38.258Z,4.20
2023-05-15T23:41:08.865Z,4.30
2023-05-15T23:43:39.337Z,4.10
2023-05-15T23:46:09.975Z,4.30
2023-05-15T23:48:40.965Z,3.80
2023-05-15T23:51:11.479Z,4.10
2023-05-15T23:53:42.169Z,4.40
2023-05-15T23:56:12.718Z,4.20
2023-05-15T23:58:43.267Z,4.00
